createdAt,value
2022-09-20T00:01:33.821Z,1.30
2022-09-20T00:04:05.703Z,1.40
2022-09-20T00:06:35.086Z,1.50
2022-09-20T00:09:04.874Z,1.30
2022-09-20T00:11:34.975Z,1.30
2022-09-20T00:14:06.236Z,1.10
2022-09-20T00:16:38.239Z,1.10
2022-09-20T00:19:07.649Z,1.20
2022-09-20T00:21:37.700Z,1.20
2022-09-20T00:24:06.235Z,1.40
2022-09-20T00:26:34.294Z,1.20
2022-09-20T00:29:02.751Z,1.20
2022-09-20T00:31:30.980Z,1.20
2022-09-20T00:34:17.854Z,1.10
2022-09-20T00:36:46.225Z,1.20
2022-09-20T00:39:15.764Z,1.40
2022-09-20T00:41:43.990Z,1.40
2022-09-20T00:44:49.088Z,1.40
2022-09-20T00:47:22.463Z,1.30
2022-09-20T00:49:53.437Z,1.20
2022-09-20T00:52:21.936Z,1.10
2022-09-20T00:54:50.223Z,1.40
2022-09-20T00:57:18.700Z,1.10
2022-09-20T00:59:49.210Z,1.20
2022-09-20T01:02:23.386Z,1.20
2022-09-20T01:04:51.935Z,1.00
2022-09-20T01:07:25.186Z,1.20
2022-09-20T01:09:53.659Z,1.00
2022-09-20T01:12:26.121Z,1.10
2022-09-20T01:14:55.547Z,1.10
2022-09-20T01:17:27.239Z,1.10
2022-09-20T01:20:28.246Z,1.10
2022-09-20T01:23:16.544Z,1.10
2022-09-20T01:25:53.855Z,1.20
2022-09-20T01:28:22.616Z,1.20
2022-09-20T01:31:07.037Z,1.10
2022-09-20T01:34:13.199Z,1.30
2022-09-20T01:36:49.050Z,1.20
2022-09-20T01:39:22.553Z,1.10
2022-09-20T01:41:53.853Z,1.30
2022-09-20T01:44:36.035Z,1.00
2022-09-20T01:47:12.856Z,1.20
2022-09-20T01:49:57.421Z,1.40
2022-09-20T01:52:34.808Z,1.10
2022-09-20T01:55:14.830Z,1.00
2022-09-20T01:58:10.017Z,1.30
2022-09-20T02:00:56.435Z,0.90
2022-09-20T02:03:42.494Z,1.10
2022-09-20T02:06:31.934Z,1.00
2022-09-20T02:09:24.636Z,0.80
2022-09-20T02:12:06.950Z,1.00
2022-09-20T02:14:51.014Z,1.30
2022-09-20T02:17:31.460Z,1.20
2022-09-20T02:20:40.308Z,1.20
2022-09-20T02:23:17.418Z,1.20
2022-09-20T02:25:58.730Z,1.10
2022-09-20T02:28:32.476Z,1.50
2022-09-20T02:31:19.081Z,1.70
2022-09-20T02:34:08.749Z,1.50
2022-09-20T02:36:55.183Z,1.90
2022-09-20T02:39:45.498Z,2.00
2022-09-20T02:42:23.845Z,2.00
2022-09-20T02:45:04.385Z,1.60
2022-09-20T02:47:40.669Z,1.60
2022-09-20T02:50:38.647Z,1.50
2022-09-20T02:53:23.008Z,1.60
2022-09-20T02:55:53.947Z,1.50
2022-09-20T02:58:22.089Z,1.60
2022-09-20T03:01:06.938Z,1.50
2022-09-20T03:03:46.991Z,1.40
2022-09-20T03:06:40.086Z,1.30
2022-09-20T03:09:41.155Z,1.10
2022-09-20T03:12:22.120Z,1.20
2022-09-20T03:15:18.232Z,1.40
2022-09-20T03:17:53.639Z,1.00
2022-09-20T03:22:54.989Z,0.90
2022-09-20T03:25:52.010Z,1.00
2022-09-20T03:28:37.430Z,1.30
2022-09-20T03:31:23.608Z,1.40
2022-09-20T03:34:06.020Z,1.20
2022-09-20T03:37:04.819Z,1.30
2022-09-20T03:39:51.345Z,1.40
2022-09-20T03:42:24.742Z,1.70
2022-09-20T03:45:05.737Z,1.70
2022-09-20T03:47:55.276Z,1.70
2022-09-20T03:50:38.653Z,1.60
2022-09-20T03:53:40.909Z,1.90
2022-09-20T03:56:39.798Z,2.00
2022-09-20T03:59:18.614Z,1.80
2022-09-20T04:02:21.027Z,1.80
2022-09-20T04:05:07.700Z,2.00
2022-09-20T04:08:06.648Z,1.90
2022-09-20T04:11:08.369Z,1.50
2022-09-20T04:13:39.910Z,1.70
2022-09-20T04:16:46.406Z,1.80
2022-09-20T04:19:42.274Z,1.80
2022-09-20T04:22:10.461Z,2.00
2022-09-20T04:24:43.306Z,1.90
2022-09-20T04:27:36.240Z,1.60
2022-09-20T04:30:11.798Z,2.60
2022-09-20T04:32:46.871Z,2.00
2022-09-20T04:36:01.230Z,2.30
2022-09-20T04:38:30.519Z,2.40
2022-09-20T04:41:23.347Z,2.60
2022-09-20T04:44:07.326Z,2.60
2022-09-20T04:47:00.266Z,2.30
2022-09-20T04:50:07.886Z,2.40
2022-09-20T04:53:14.965Z,2.70
2022-09-20T04:55:52.321Z,1.90
2022-09-20T04:58:38.821Z,2.10
2022-09-20T05:01:19.688Z,2.00
2022-09-20T05:04:19.006Z,2.20
2022-09-20T05:06:46.881Z,1.70
2022-09-20T05:09:40.601Z,2.00
2022-09-20T05:12:37.499Z,2.20
2022-09-20T05:15:34.811Z,2.60
2022-09-20T05:18:40.387Z,2.40
2022-09-20T05:21:26.989Z,2.80
2022-09-20T05:24:19.286Z,3.00
2022-09-20T05:26:50.212Z,3.00
2022-09-20T05:29:38.579Z,3.80
2022-09-20T05:32:18.531Z,3.30
2022-09-20T05:35:15.654Z,3.70
2022-09-20T05:38:22.951Z,3.40
2022-09-20T05:41:19.057Z,3.80
2022-09-20T05:46:31.311Z,3.70
2022-09-20T05:49:18.240Z,3.70
2022-09-20T05:51:58.881Z,3.50
2022-09-20T05:54:39.462Z,3.70
2022-09-20T05:57:35.661Z,7.10
2022-09-20T06:03:00.741Z,12.10
2022-09-20T06:05:47.233Z,4.00
2022-09-20T06:08:27.491Z,3.10
2022-09-20T06:11:18.621Z,3.20
2022-09-20T06:14:27.814Z,2.90
2022-09-20T06:17:28.114Z,3.00
2022-09-20T06:20:17.930Z,3.00
2022-09-20T06:22:54.694Z,2.30
2022-09-20T06:25:44.232Z,3.20
2022-09-20T06:28:20.298Z,2.70
2022-09-20T06:30:49.830Z,2.80
2022-09-20T06:33:21.085Z,2.60
2022-09-20T06:36:26.249Z,3.00
2022-09-20T06:39:33.007Z,2.50
2022-09-20T06:44:31.348Z,2.40
2022-09-20T06:46:59.903Z,2.10
2022-09-20T06:49:29.264Z,2.80
2022-09-20T06:51:57.656Z,3.10
2022-09-20T06:54:27.254Z,2.00
2022-09-20T06:56:55.431Z,2.00
2022-09-20T06:59:24.161Z,1.50
2022-09-20T07:01:52.484Z,1.90
2022-09-20T07:04:22.328Z,2.30
2022-09-20T07:06:51.024Z,2.50
2022-09-20T07:09:19.373Z,2.80
2022-09-20T07:11:47.392Z,2.00
2022-09-20T07:14:16.295Z,2.00
2022-09-20T07:16:44.611Z,2.00
2022-09-20T07:19:12.746Z,1.90
2022-09-20T07:21:40.967Z,2.70
2022-09-20T07:24:08.918Z,3.60
2022-09-20T07:26:39.025Z,2.10
2022-09-20T07:29:07.956Z,2.10
2022-09-20T07:31:35.939Z,2.90
2022-09-20T07:34:04.111Z,2.70
2022-09-20T07:36:32.085Z,1.90
2022-09-20T07:39:00.237Z,1.90
2022-09-20T07:41:30.652Z,6.40
2022-09-20T07:44:18.821Z,3.20
2022-09-20T07:46:49.062Z,3.70
2022-09-20T07:49:17.641Z,3.80
2022-09-20T07:51:45.968Z,2.60
2022-09-20T07:54:14.514Z,2.30
2022-09-20T07:56:43.575Z,2.30
2022-09-20T07:59:13.433Z,2.40
2022-09-20T08:01:42.715Z,2.20
2022-09-20T08:04:11.637Z,2.40
2022-09-20T08:06:42.468Z,2.20
2022-09-20T08:09:13.591Z,2.80
2022-09-20T08:11:43.699Z,1.90
2022-09-20T08:14:16.947Z,1.90
2022-09-20T08:16:47.729Z,2.00
2022-09-20T08:19:18.519Z,2.00
2022-09-20T08:21:47.169Z,1.80
2022-09-20T08:24:16.569Z,2.50
2022-09-20T08:26:45.407Z,2.20
2022-09-20T08:29:15.343Z,2.20
2022-09-20T08:31:43.900Z,2.20
2022-09-20T08:34:15.227Z,2.10
2022-09-20T08:36:46.952Z,1.90
2022-09-20T08:42:14.405Z,2.50
2022-09-20T08:45:00.496Z,2.00
2022-09-20T08:47:36.866Z,2.10
2022-09-20T08:50:09.989Z,2.60
2022-09-20T08:52:40.916Z,2.20
2022-09-20T08:55:39.668Z,2.00
2022-09-20T08:58:10.898Z,2.20
2022-09-20T09:00:40.501Z,2.30
2022-09-20T09:03:19.477Z,2.10
2022-09-20T09:05:55.258Z,2.40
2022-09-20T09:08:37.629Z,2.20
2022-09-20T09:11:13.163Z,2.60
2022-09-20T09:14:01.683Z,2.40
2022-09-20T09:16:35.365Z,2.40
2022-09-20T09:19:34.670Z,2.30
2022-09-20T09:22:05.876Z,1.80
2022-09-20T09:24:34.070Z,2.20
2022-09-20T09:27:16.467Z,11.40
2022-09-20T09:29:53.163Z,2.90
2022-09-20T09:32:32.761Z,2.00
2022-09-20T09:35:30.148Z,1.90
2022-09-20T09:38:01.768Z,1.40
2022-09-20T09:40:32.542Z,1.50
2022-09-20T09:43:02.924Z,1.20
2022-09-20T09:45:41.009Z,1.10
2022-09-20T09:48:18.238Z,0.80
2022-09-20T09:50:47.813Z,1.40
2022-09-20T09:53:20.530Z,1.00
2022-09-20T09:56:14.336Z,1.90
2022-09-20T09:59:01.074Z,1.30
2022-09-20T10:01:44.252Z,1.30
2022-09-20T10:04:37.192Z,1.20
2022-09-20T10:07:13.307Z,1.40
2022-09-20T10:09:55.073Z,1.30
2022-09-20T10:12:36.576Z,1.20
2022-09-20T10:15:27.070Z,1.10
2022-09-20T10:18:23.188Z,0.90
2022-09-20T10:21:25.669Z,1.30
2022-09-20T10:24:04.887Z,1.20
2022-09-20T10:27:00.550Z,1.20
2022-09-20T10:29:34.651Z,1.20
2022-09-20T10:32:21.824Z,1.30
2022-09-20T10:34:52.944Z,1.20
2022-09-20T10:37:49.234Z,1.00
2022-09-20T10:40:20.706Z,1.10
2022-09-20T10:43:17.219Z,1.10
2022-09-20T10:46:20.917Z,1.10
2022-09-20T10:48:58.199Z,0.90
2022-09-20T10:51:47.268Z,1.20
2022-09-20T10:54:38.292Z,1.30
2022-09-20T10:57:46.842Z,0.90
2022-09-20T11:00:53.126Z,1.30
2022-09-20T11:03:27.440Z,1.10
2022-09-20T11:06:26.465Z,1.00
2022-09-20T11:08:59.482Z,1.20
2022-09-20T11:11:51.491Z,1.50
2022-09-20T11:14:32.415Z,1.30
2022-09-20T11:17:22.649Z,1.10
2022-09-20T11:20:07.892Z,1.00
2022-09-20T11:23:19.067Z,1.40
2022-09-20T11:25:55.395Z,0.90
2022-09-20T11:28:47.328Z,1.20
2022-09-20T11:31:31.237Z,1.10
2022-09-20T11:34:03.438Z,0.90
2022-09-20T11:36:43.005Z,1.00
2022-09-20T11:39:51.159Z,0.80
2022-09-20T11:42:24.586Z,0.90
2022-09-20T11:44:55.069Z,1.20
2022-09-20T11:47:54.507Z,0.90
2022-09-20T11:51:05.351Z,1.40
2022-09-20T11:53:41.197Z,0.80
2022-09-20T11:56:34.047Z,0.50
2022-09-20T11:59:05.291Z,1.30
2022-09-20T12:01:43.288Z,0.80
2022-09-20T12:04:39.046Z,0.90
2022-09-20T12:07:24.867Z,1.20
2022-09-20T12:10:00.774Z,1.10
2022-09-20T12:12:46.811Z,0.90
2022-09-20T12:15:32.407Z,1.20
2022-09-20T12:18:00.852Z,1.50
2022-09-20T12:20:35.635Z,1.20
2022-09-20T12:23:40.942Z,1.30
2022-09-20T12:26:21.146Z,1.20
2022-09-20T12:29:24.507Z,1.50
2022-09-20T12:32:00.358Z,1.50
2022-09-20T12:34:35.387Z,1.70
2022-09-20T12:37:04.953Z,1.00
2022-09-20T12:39:39.518Z,1.00
2022-09-20T12:42:10.617Z,0.50
2022-09-20T12:45:03.478Z,1.00
2022-09-20T12:47:37.756Z,0.80
2022-09-20T12:50:34.087Z,0.90
2022-09-20T12:53:04.780Z,0.60
2022-09-20T12:56:09.542Z,1.10
2022-09-20T12:58:55.602Z,1.50
2022-09-20T13:01:23.716Z,1.10
2022-09-20T13:03:51.964Z,1.00
2022-09-20T13:06:20.097Z,1.10
2022-09-20T13:09:00.428Z,1.00
2022-09-20T13:12:02.190Z,1.40
2022-09-20T13:14:33.011Z,0.80
2022-09-20T13:17:07.720Z,1.00
2022-09-20T13:19:42.166Z,0.90
2022-09-20T13:22:20.908Z,1.00
2022-09-20T13:24:52.726Z,1.00
2022-09-20T13:27:34.727Z,1.40
2022-09-20T13:30:20.318Z,1.10
2022-09-20T13:32:50.643Z,1.10
2022-09-20T13:35:21.753Z,1.30
2022-09-20T13:37:58.839Z,1.10
2022-09-20T13:40:43.946Z,1.10
2022-09-20T13:43:24.583Z,1.10
2022-09-20T13:45:57.021Z,1.20
2022-09-20T13:48:27.583Z,1.30
2022-09-20T13:50:58.814Z,1.30
2022-09-20T13:53:45.810Z,1.10
2022-09-20T13:56:26.387Z,1.30
2022-09-20T13:58:59.068Z,1.30
2022-09-20T14:01:34.777Z,1.30
2022-09-20T14:06:32.135Z,1.10
2022-09-20T14:09:07.094Z,1.20
2022-09-20T14:11:39.519Z,1.20
2022-09-20T14:14:12.669Z,1.30
2022-09-20T14:16:48.331Z,1.20
2022-09-20T14:19:20.481Z,1.10
2022-09-20T14:21:50.360Z,1.30
2022-09-20T14:24:33.265Z,1.10
2022-09-20T14:27:01.544Z,1.40
2022-09-20T14:29:41.798Z,1.10
2022-09-20T14:32:25.331Z,1.30
2022-09-20T14:34:56.594Z,1.30
2022-09-20T14:37:28.922Z,1.10
2022-09-20T14:40:00.116Z,1.30
2022-09-20T14:42:36.280Z,1.30
2022-09-20T14:45:05.578Z,1.20
2022-09-20T14:47:54.979Z,1.40
2022-09-20T14:50:35.108Z,1.30
2022-09-20T14:53:07.236Z,1.30
2022-09-20T14:55:37.933Z,1.40
2022-09-20T14:58:15.338Z,1.20
2022-09-20T15:01:06.062Z,1.00
2022-09-20T15:03:40.580Z,1.40
2022-09-20T15:06:13.225Z,1.20
2022-09-20T15:08:46.381Z,1.30
2022-09-20T15:11:16.898Z,1.40
2022-09-20T15:13:45.810Z,1.40
2022-09-20T15:16:21.716Z,1.50
2022-09-20T15:18:49.764Z,1.30
2022-09-20T15:21:17.829Z,1.80
2022-09-20T15:23:45.841Z,1.60
2022-09-20T15:26:15.211Z,1.60
2022-09-20T15:28:43.135Z,1.50
2022-09-20T15:31:11.373Z,1.70
2022-09-20T15:33:39.383Z,1.90
2022-09-20T15:36:08.392Z,1.90
2022-09-20T15:38:36.379Z,1.90
2022-09-20T15:41:04.953Z,1.90
2022-09-20T15:43:33.676Z,1.80
2022-09-20T15:46:18.723Z,1.90
2022-09-20T15:48:47.284Z,1.60
2022-09-20T15:51:15.997Z,1.50
2022-09-20T15:53:46.841Z,1.70
2022-09-20T15:56:21.319Z,2.00
2022-09-20T15:58:51.875Z,2.40
2022-09-20T16:01:20.188Z,2.10
2022-09-20T16:03:49.077Z,2.40
2022-09-20T16:06:17.634Z,2.00
2022-09-20T16:08:45.886Z,2.20
2022-09-20T16:11:21.736Z,1.80
2022-09-20T16:13:58.575Z,1.90
2022-09-20T16:16:29.122Z,2.00
2022-09-20T16:19:15.660Z,1.90
2022-09-20T16:21:53.633Z,2.00
2022-09-20T16:24:27.438Z,2.50
2022-09-20T16:26:55.833Z,2.30
2022-09-20T16:29:25.811Z,2.10
2022-09-20T16:31:55.341Z,2.30
2022-09-20T16:34:28.565Z,2.40
2022-09-20T16:37:02.323Z,2.50
2022-09-20T16:39:31.740Z,2.70
2022-09-20T16:42:05.269Z,2.90
2022-09-20T16:44:36.399Z,3.00
2022-09-20T16:47:08.169Z,3.50
2022-09-20T16:49:37.364Z,3.20
2022-09-20T16:52:06.933Z,3.20
2022-09-20T16:54:37.825Z,2.70
2022-09-20T16:57:05.995Z,2.90
2022-09-20T16:59:33.949Z,2.90
2022-09-20T17:02:02.033Z,2.80
2022-09-20T17:04:30.328Z,2.50
2022-09-20T17:06:58.965Z,2.50
2022-09-20T17:09:28.447Z,1.90
2022-09-20T17:11:56.695Z,2.10
2022-09-20T17:14:25.985Z,2.30
2022-09-20T17:16:54.182Z,2.30
2022-09-20T17:19:22.202Z,2.70
2022-09-20T17:21:51.001Z,3.10
2022-09-20T17:24:21.028Z,2.60
2022-09-20T17:26:50.946Z,3.20
2022-09-20T17:29:20.528Z,3.60
2022-09-20T17:31:55.158Z,3.10
2022-09-20T17:34:25.175Z,2.90
2022-09-20T17:36:55.117Z,3.30
2022-09-20T17:39:24.055Z,3.30
2022-09-20T17:41:52.014Z,3.00
2022-09-20T17:44:19.904Z,3.10
2022-09-20T17:46:50.414Z,2.90
2022-09-20T17:49:21.074Z,2.90
2022-09-20T17:51:54.716Z,2.80
2022-09-20T17:54:24.671Z,3.60
2022-09-20T17:56:56.140Z,3.70
2022-09-20T17:59:25.056Z,3.60
2022-09-20T18:01:54.746Z,3.70
2022-09-20T18:04:25.249Z,3.30
2022-09-20T18:06:54.390Z,4.10
2022-09-20T18:09:25.452Z,3.80
2022-09-20T18:11:55.456Z,3.50
2022-09-20T18:14:27.714Z,4.00
2022-09-20T18:17:01.135Z,3.70
2022-09-20T18:19:33.602Z,4.10
2022-09-20T18:22:02.920Z,4.20
2022-09-20T18:24:31.150Z,4.00
2022-09-20T18:27:01.141Z,4.10
2022-09-20T18:29:31.790Z,3.90
2022-09-20T18:32:00.945Z,4.20
2022-09-20T18:34:32.251Z,3.50
2022-09-20T18:37:01.406Z,3.90
2022-09-20T18:39:35.074Z,3.80
2022-09-20T18:42:04.030Z,3.70
2022-09-20T18:44:34.116Z,3.50
2022-09-20T18:47:03.965Z,3.70
2022-09-20T18:49:32.663Z,3.70
2022-09-20T18:52:01.135Z,3.30
2022-09-20T18:54:33.426Z,3.30
2022-09-20T18:57:02.038Z,3.70
2022-09-20T18:59:30.229Z,4.00
2022-09-20T19:02:01.578Z,3.80
2022-09-20T19:04:29.437Z,4.50
2022-09-20T19:07:16.127Z,4.40
2022-09-20T19:09:57.107Z,5.20
2022-09-20T19:13:04.739Z,5.50
2022-09-20T19:15:44.835Z,5.00
2022-09-20T19:18:37.098Z,6.10
2022-09-20T19:21:10.613Z,6.40
2022-09-20T19:23:52.604Z,5.40
2022-09-20T19:26:28.680Z,4.70
2022-09-20T19:29:02.284Z,4.90
2022-09-20T19:31:32.811Z,4.90
2022-09-20T19:34:04.945Z,5.40
2022-09-20T19:36:49.899Z,5.10
2022-09-20T19:39:36.906Z,6.30
2022-09-20T19:42:15.849Z,5.20
2022-09-20T19:44:52.753Z,6.10
2022-09-20T19:47:47.399Z,5.70
2022-09-20T19:50:28.216Z,5.20
2022-09-20T19:52:56.635Z,6.30
2022-09-20T19:55:25.314Z,5.80
2022-09-20T19:57:53.707Z,6.20
2022-09-20T20:00:22.237Z,5.60
2022-09-20T20:02:50.494Z,6.30
2022-09-20T20:05:25.120Z,5.70
2022-09-20T20:08:11.967Z,5.80
2022-09-20T20:10:58.624Z,5.50
2022-09-20T20:14:07.236Z,4.80
2022-09-20T20:17:17.136Z,4.90
2022-09-20T20:20:00.915Z,4.80
2022-09-20T20:22:52.980Z,4.50
2022-09-20T20:25:42.836Z,4.50
2022-09-20T20:28:10.843Z,4.50
2022-09-20T20:30:38.881Z,3.80
2022-09-20T20:33:07.362Z,4.20
2022-09-20T20:35:37.484Z,4.80
2022-09-20T20:38:12.656Z,4.20
2022-09-20T20:40:40.826Z,4.50
2022-09-20T20:43:09.557Z,4.30
2022-09-20T20:45:38.829Z,4.60
2022-09-20T20:48:06.817Z,4.80
2022-09-20T20:50:35.605Z,5.00
2022-09-20T20:53:03.675Z,4.70
2022-09-20T20:55:31.705Z,4.80
2022-09-20T20:57:59.727Z,4.80
2022-09-20T21:00:28.591Z,5.00
2022-09-20T21:03:01.058Z,5.10
2022-09-20T21:05:29.281Z,4.20
2022-09-20T21:07:58.659Z,4.30
2022-09-20T21:10:26.503Z,3.90
2022-09-20T21:12:54.914Z,4.00
2022-09-20T21:15:22.813Z,4.60
2022-09-20T21:17:53.807Z,3.60
2022-09-20T21:20:25.861Z,4.20
2022-09-20T21:22:56.065Z,4.20
2022-09-20T21:25:23.981Z,4.10
2022-09-20T21:27:53.769Z,4.00
2022-09-20T21:30:21.603Z,4.40
2022-09-20T21:32:49.551Z,4.70
2022-09-20T21:35:17.617Z,5.50
2022-09-20T21:37:45.574Z,4.90
2022-09-20T21:40:13.660Z,4.90
2022-09-20T21:42:41.644Z,5.40
2022-09-20T21:45:11.217Z,5.10
2022-09-20T21:47:39.241Z,5.10
2022-09-20T21:50:08.033Z,5.20
2022-09-20T21:52:35.941Z,4.50
2022-09-20T21:55:07.168Z,3.70
2022-09-20T21:57:35.164Z,3.90
2022-09-20T22:00:04.001Z,4.10
2022-09-20T22:02:40.701Z,5.00
2022-09-20T22:05:09.100Z,3.90
2022-09-20T22:07:37.026Z,3.80
2022-09-20T22:10:05.545Z,4.20
2022-09-20T22:12:33.505Z,4.20
2022-09-20T22:15:01.557Z,4.10
2022-09-20T22:17:29.886Z,4.00
2022-09-20T22:19:58.686Z,4.10
2022-09-20T22:22:27.852Z,4.70
2022-09-20T22:24:56.247Z,4.10
2022-09-20T22:27:24.269Z,4.20
2022-09-20T22:29:52.685Z,4.30
2022-09-20T22:32:20.864Z,3.80
2022-09-20T22:34:48.796Z,3.90
2022-09-20T22:37:17.754Z,3.50
2022-09-20T22:39:46.815Z,3.30
2022-09-20T22:42:14.814Z,4.00
2022-09-20T22:44:42.715Z,3.30
2022-09-20T22:47:10.767Z,3.40
2022-09-20T22:49:39.088Z,3.60
2022-09-20T22:52:07.655Z,3.90
2022-09-20T22:54:35.711Z,3.20
2022-09-20T22:57:04.234Z,3.70
2022-09-20T22:59:32.647Z,3.60
2022-09-20T23:02:00.717Z,4.10
2022-09-20T23:04:28.999Z,4.20
2022-09-20T23:06:57.012Z,4.30
2022-09-20T23:09:28.353Z,4.30
2022-09-20T23:11:56.661Z,4.70
2022-09-20T23:14:25.088Z,4.00
2022-09-20T23:16:53.516Z,4.10
2022-09-20T23:19:21.651Z,3.80
2022-09-20T23:21:49.979Z,4.10
2022-09-20T23:24:18.230Z,3.90
2022-09-20T23:26:46.300Z,3.40
2022-09-20T23:29:16.391Z,3.50
2022-09-20T23:31:47.462Z,3.30
2022-09-20T23:34:17.698Z,3.60
2022-09-20T23:36:46.889Z,3.50
2022-09-20T23:39:16.200Z,3.50
2022-09-20T23:41:49.870Z,3.90
2022-09-20T23:44:19.734Z,4.20
2022-09-20T23:46:47.859Z,4.00
2022-09-20T23:49:15.814Z,3.50
2022-09-20T23:51:43.682Z,3.90
2022-09-20T23:54:11.778Z,5.30
2022-09-20T23:56:40.878Z,3.40
2022-09-20T23:59:08.733Z,3.90
